createdAt,value
2022-09-25T00:00:59.590Z,21.90
2022-09-25T00:03:43.447Z,21.73
2022-09-25T00:06:16.368Z,21.10
2022-09-25T00:08:43.746Z,20.63
2022-09-25T00:11:13.516Z,20.48
2022-09-25T00:13:41.923Z,20.52
2022-09-25T00:16:14.807Z,20.40
2022-09-25T00:19:01.305Z,21.05
2022-09-25T00:21:31.324Z,21.90
2022-09-25T00:24:00.948Z,21.45
2022-09-25T00:26:29.757Z,20.63
2022-09-25T00:28:57.845Z,21.63
2022-09-25T00:31:25.152Z,21.10
2022-09-25T00:33:52.538Z,21.55
2022-09-25T00:36:20.053Z,22.17
2022-09-25T00:38:48.496Z,22.38
2022-09-25T00:41:18.204Z,22.08
2022-09-25T00:43:48.849Z,23.95
2022-09-25T00:46:42.633Z,23.98
2022-09-25T00:49:09.931Z,23.33
2022-09-25T00:51:54.613Z,24.83
2022-09-25T00:54:21.852Z,25.30
2022-09-25T00:56:51.551Z,25.60
2022-09-25T00:59:27.604Z,24.85
2022-09-25T01:01:55.601Z,25.98
2022-09-25T01:04:23.253Z,25.75
2022-09-25T01:06:50.900Z,23.88
2022-09-25T01:09:18.968Z,23.38
2022-09-25T01:11:46.239Z,22.58
2022-09-25T01:14:17.457Z,23.33
2022-09-25T01:17:01.051Z,24.40
2022-09-25T01:19:46.863Z,25.70
2022-09-25T01:22:44.430Z,24.67
2022-09-25T01:25:36.337Z,24.85
2022-09-25T01:28:37.165Z,24.73
2022-09-25T01:31:13.463Z,25.98
2022-09-25T01:33:46.721Z,26.10
2022-09-25T01:36:33.901Z,27.13
2022-09-25T01:39:11.141Z,26.38
2022-09-25T01:41:42.034Z,28.10
2022-09-25T01:44:31.845Z,26.58
2022-09-25T01:47:11.419Z,25.95
2022-09-25T01:50:00.814Z,26.02
2022-09-25T01:52:35.790Z,26.08
2022-09-25T01:55:20.143Z,26.15
2022-09-25T01:57:53.598Z,27.02
2022-09-25T02:00:23.165Z,25.92
2022-09-25T02:02:55.857Z,27.27
2022-09-25T02:05:31.031Z,27.85
2022-09-25T02:08:05.422Z,26.75
2022-09-25T02:10:55.968Z,28.40
2022-09-25T02:13:27.030Z,25.23
2022-09-25T02:15:57.459Z,27.90
2022-09-25T02:18:43.925Z,25.98
2022-09-25T02:21:37.412Z,28.35
2022-09-25T02:24:20.937Z,28.67
2022-09-25T02:26:48.744Z,28.52
2022-09-25T02:29:15.948Z,29.77
2022-09-25T02:31:53.941Z,30.83
2022-09-25T02:34:22.306Z,31.90
2022-09-25T02:36:49.398Z,31.70
2022-09-25T02:39:19.087Z,32.15
2022-09-25T02:42:18.359Z,30.80
2022-09-25T02:45:10.018Z,30.35
2022-09-25T02:50:20.643Z,30.17
2022-09-25T02:53:23.693Z,29.80
2022-09-25T02:56:05.422Z,31.50
2022-09-25T02:58:37.745Z,29.10
2022-09-25T03:01:08.275Z,28.90
2022-09-25T03:03:38.322Z,31.10
2022-09-25T03:06:07.927Z,30.35
2022-09-25T03:08:38.136Z,30.10
2022-09-25T03:11:08.114Z,30.08
2022-09-25T03:13:35.825Z,28.88
2022-09-25T03:16:08.614Z,29.83
2022-09-25T03:18:35.708Z,30.67
2022-09-25T03:21:04.226Z,29.60
2022-09-25T03:23:32.402Z,30.48
2022-09-25T03:25:59.766Z,28.85
2022-09-25T03:28:27.265Z,29.65
2022-09-25T03:31:02.416Z,29.55
2022-09-25T03:33:33.386Z,28.80
2022-09-25T03:36:02.292Z,28.87
2022-09-25T03:38:29.082Z,27.77
2022-09-25T03:40:56.135Z,28.02
2022-09-25T03:43:23.070Z,28.67
2022-09-25T03:45:49.968Z,28.17
2022-09-25T03:48:17.775Z,28.13
2022-09-25T03:50:46.213Z,26.02
2022-09-25T03:53:13.002Z,26.05
2022-09-25T03:55:40.006Z,26.02
2022-09-25T03:58:06.849Z,27.02
2022-09-25T04:00:33.831Z,27.05
2022-09-25T04:03:01.160Z,27.50
2022-09-25T04:05:28.000Z,25.30
2022-09-25T04:07:54.931Z,26.33
2022-09-25T04:10:22.079Z,24.55
2022-09-25T04:12:53.241Z,26.08
2022-09-25T04:15:24.208Z,26.17
2022-09-25T04:17:55.049Z,23.90
2022-09-25T04:20:22.544Z,25.15
2022-09-25T04:22:49.477Z,23.48
2022-09-25T04:25:19.556Z,24.13
2022-09-25T04:27:50.389Z,23.50
2022-09-25T04:30:17.449Z,24.08
2022-09-25T04:33:02.745Z,22.80
2022-09-25T04:35:29.754Z,22.52
2022-09-25T04:37:56.563Z,23.25
2022-09-25T04:40:23.400Z,22.55
2022-09-25T04:42:58.921Z,23.27
2022-09-25T04:45:26.789Z,23.30
2022-09-25T04:47:54.537Z,24.25
2022-09-25T04:50:25.591Z,23.90
2022-09-25T04:52:52.900Z,24.23
2022-09-25T04:55:24.816Z,23.95
2022-09-25T05:00:29.954Z,22.48
2022-09-25T05:02:57.245Z,24.92
2022-09-25T05:05:28.407Z,22.77
2022-09-25T05:07:57.423Z,23.55
2022-09-25T05:10:30.315Z,23.10
2022-09-25T05:13:02.607Z,23.75
2022-09-25T05:15:31.849Z,21.92
2022-09-25T05:18:15.270Z,22.52
2022-09-25T05:20:42.071Z,22.70
2022-09-25T05:23:09.528Z,22.40
2022-09-25T05:25:36.510Z,23.10
2022-09-25T05:28:03.408Z,22.88
2022-09-25T05:30:33.305Z,23.27
2022-09-25T05:33:00.272Z,23.58
2022-09-25T05:35:29.522Z,22.67
2022-09-25T05:37:56.702Z,23.10
2022-09-25T05:40:24.226Z,22.45
2022-09-25T05:42:52.209Z,21.45
2022-09-25T05:45:21.490Z,23.38
2022-09-25T05:47:48.349Z,22.42
2022-09-25T05:50:16.970Z,22.15
2022-09-25T05:52:44.000Z,21.63
2022-09-25T05:55:11.485Z,22.42
2022-09-25T05:57:39.023Z,22.88
2022-09-25T06:00:11.651Z,22.98
2022-09-25T06:02:41.453Z,21.40
2022-09-25T06:05:10.091Z,21.40
2022-09-25T06:07:37.357Z,21.92
2022-09-25T06:10:04.523Z,21.10
2022-09-25T06:12:31.983Z,22.23
2022-09-25T06:14:59.025Z,22.85
2022-09-25T06:17:25.853Z,21.95
2022-09-25T06:19:52.866Z,20.80
2022-09-25T06:22:20.041Z,20.50
2022-09-25T06:24:48.750Z,20.05
2022-09-25T06:27:15.925Z,21.65
2022-09-25T06:29:42.750Z,20.40
2022-09-25T06:32:09.615Z,20.60
2022-09-25T06:34:36.654Z,20.27
2022-09-25T06:37:03.508Z,20.90
2022-09-25T06:39:33.264Z,19.77
2022-09-25T06:42:00.342Z,19.77
2022-09-25T06:44:28.289Z,19.27
2022-09-25T06:46:55.200Z,19.15
2022-09-25T06:49:22.495Z,18.60
2022-09-25T06:51:51.114Z,18.67
2022-09-25T06:54:18.211Z,18.45
2022-09-25T06:56:49.506Z,18.48
2022-09-25T06:59:17.125Z,17.85
2022-09-25T07:01:44.022Z,17.30
2022-09-25T07:04:11.371Z,16.50
2022-09-25T07:06:38.340Z,16.92
2022-09-25T07:09:05.475Z,18.05
2022-09-25T07:11:32.572Z,17.75
2022-09-25T07:13:59.650Z,18.25
2022-09-25T07:16:28.798Z,17.85
2022-09-25T07:18:58.502Z,17.52
2022-09-25T07:21:27.806Z,18.58
2022-09-25T07:23:54.761Z,19.63
2022-09-25T07:26:25.278Z,17.23
2022-09-25T07:28:55.234Z,18.70
2022-09-25T07:31:26.136Z,17.95
2022-09-25T07:33:53.722Z,17.57
2022-09-25T07:36:21.006Z,18.27
2022-09-25T07:38:52.441Z,18.52
2022-09-25T07:41:22.266Z,19.15
2022-09-25T07:44:17.673Z,18.70
2022-09-25T07:46:44.517Z,19.33
2022-09-25T07:49:12.172Z,17.80
2022-09-25T07:51:39.306Z,18.25
2022-09-25T07:54:06.871Z,17.98
2022-09-25T07:56:38.385Z,17.77
2022-09-25T07:59:05.506Z,17.58
2022-09-25T08:01:32.703Z,16.85
2022-09-25T08:03:59.967Z,17.83
2022-09-25T08:06:26.770Z,18.35
2022-09-25T08:08:53.673Z,17.63
2022-09-25T08:11:20.683Z,17.58
2022-09-25T08:13:47.556Z,17.50
2022-09-25T08:16:17.525Z,18.73
2022-09-25T08:18:46.812Z,19.00
2022-09-25T08:21:19.246Z,18.80
2022-09-25T08:23:52.531Z,17.95
2022-09-25T08:26:21.522Z,17.15
2022-09-25T08:28:50.697Z,16.92
2022-09-25T08:31:17.960Z,16.92
2022-09-25T08:33:46.552Z,16.60
2022-09-25T08:36:14.313Z,16.85
2022-09-25T08:38:41.217Z,17.58
2022-09-25T08:41:15.179Z,16.55
2022-09-25T08:43:49.505Z,16.80
2022-09-25T08:46:59.280Z,17.30
2022-09-25T08:49:30.833Z,16.02
2022-09-25T08:52:02.931Z,16.67
2022-09-25T08:54:32.420Z,16.40
2022-09-25T08:57:08.780Z,16.45
2022-09-25T08:59:39.203Z,15.80
2022-09-25T09:02:19.667Z,16.67
2022-09-25T09:04:56.920Z,17.08
2022-09-25T09:07:29.886Z,15.27
2022-09-25T09:10:11.063Z,15.65
2022-09-25T09:12:44.749Z,16.97
2022-09-25T09:15:39.146Z,15.80
2022-09-25T09:18:18.981Z,15.90
2022-09-25T09:20:58.508Z,15.98
2022-09-25T09:23:34.393Z,15.20
2022-09-25T09:26:03.099Z,15.05
2022-09-25T09:28:56.808Z,15.40
2022-09-25T09:31:51.689Z,15.02
2022-09-25T09:35:01.298Z,13.65
2022-09-25T09:37:50.449Z,14.18
2022-09-25T09:40:47.273Z,13.77
2022-09-25T09:43:23.137Z,13.55
2022-09-25T09:46:15.391Z,13.65
2022-09-25T09:49:06.989Z,14.10
2022-09-25T09:51:54.184Z,12.65
2022-09-25T09:54:30.133Z,12.07
2022-09-25T09:56:57.858Z,12.93
2022-09-25T09:59:31.549Z,11.93
2022-09-25T10:02:03.295Z,11.68
2022-09-25T10:04:36.216Z,12.10
2022-09-25T10:07:13.715Z,13.00
2022-09-25T10:09:40.775Z,12.73
2022-09-25T10:12:15.215Z,12.20
2022-09-25T10:14:45.840Z,10.93
2022-09-25T10:17:12.905Z,9.55
2022-09-25T10:19:54.223Z,10.07
2022-09-25T10:22:26.005Z,10.25
2022-09-25T10:25:01.983Z,9.48
2022-09-25T10:27:46.363Z,10.68
2022-09-25T10:30:20.430Z,9.77
2022-09-25T10:33:01.278Z,8.55
2022-09-25T10:35:41.602Z,9.25
2022-09-25T10:38:39.304Z,9.55
2022-09-25T10:41:12.220Z,8.80
2022-09-25T10:43:55.420Z,10.05
2022-09-25T10:46:52.598Z,10.10
2022-09-25T10:49:43.775Z,9.82
2022-09-25T10:52:16.131Z,8.57
2022-09-25T10:54:45.569Z,9.35
2022-09-25T10:57:38.452Z,8.65
2022-09-25T11:00:27.051Z,8.52
2022-09-25T11:03:00.902Z,7.38
2022-09-25T11:05:31.847Z,7.38
2022-09-25T11:08:02.793Z,5.25
2022-09-25T11:10:36.290Z,6.32
2022-09-25T11:13:28.558Z,6.25
2022-09-25T11:16:01.106Z,5.93
2022-09-25T11:18:45.625Z,6.07
2022-09-25T11:21:49.226Z,6.20
2022-09-25T11:24:26.546Z,6.15
2022-09-25T11:27:18.402Z,7.25
2022-09-25T11:29:54.639Z,7.82
2022-09-25T11:32:59.732Z,6.35
2022-09-25T11:35:57.842Z,5.88
2022-09-25T11:39:04.444Z,6.00
2022-09-25T11:41:53.341Z,7.20
2022-09-25T11:44:54.406Z,7.03
2022-09-25T11:47:28.353Z,5.90
2022-09-25T11:49:58.890Z,6.53
2022-09-25T11:52:28.725Z,5.47
2022-09-25T11:55:34.634Z,5.28
2022-09-25T11:58:14.783Z,4.85
2022-09-25T12:01:18.893Z,5.07
2022-09-25T12:03:46.421Z,4.20
2022-09-25T12:06:22.134Z,4.50
2022-09-25T12:09:10.253Z,4.47
2022-09-25T12:11:55.264Z,4.78
2022-09-25T12:14:46.925Z,5.00
2022-09-25T12:17:28.894Z,4.18
2022-09-25T12:20:33.883Z,4.38
2022-09-25T12:23:19.097Z,4.30
2022-09-25T12:25:55.066Z,4.40
2022-09-25T12:28:28.070Z,4.90
2022-09-25T12:31:07.556Z,4.45
2022-09-25T12:33:44.389Z,4.80
2022-09-25T12:36:20.842Z,4.63
2022-09-25T12:39:01.600Z,4.63
2022-09-25T12:41:51.551Z,5.85
2022-09-25T12:44:43.779Z,5.15
2022-09-25T12:48:00.167Z,5.10
2022-09-25T12:50:34.040Z,5.15
2022-09-25T12:53:24.981Z,5.72
2022-09-25T12:56:19.047Z,4.65
2022-09-25T12:59:05.716Z,5.43
2022-09-25T13:02:09.634Z,5.00
2022-09-25T13:04:42.558Z,5.60
2022-09-25T13:07:25.177Z,5.55
2022-09-25T13:09:52.373Z,6.55
2022-09-25T13:12:33.442Z,6.28
2022-09-25T13:17:37.242Z,7.97
2022-09-25T13:20:28.874Z,5.93
2022-09-25T13:23:01.560Z,6.30
2022-09-25T13:25:30.161Z,6.72
2022-09-25T13:28:07.527Z,6.07
2022-09-25T13:30:35.109Z,6.43
2022-09-25T13:33:04.093Z,6.47
2022-09-25T13:35:32.988Z,6.38
2022-09-25T13:38:38.847Z,6.68
2022-09-25T13:41:12.020Z,6.57
2022-09-25T13:43:39.330Z,6.45
2022-09-25T13:46:21.480Z,6.13
2022-09-25T13:48:52.193Z,6.05
2022-09-25T13:51:21.895Z,6.10
2022-09-25T13:54:03.062Z,5.97
2022-09-25T13:56:42.022Z,6.03
2022-09-25T13:59:13.857Z,5.65
2022-09-25T14:01:41.576Z,6.00
2022-09-25T14:04:14.946Z,5.88
2022-09-25T14:06:44.792Z,6.15
2022-09-25T14:09:17.735Z,6.32
2022-09-25T14:11:55.773Z,5.93
2022-09-25T14:14:31.068Z,5.63
2022-09-25T14:16:59.783Z,6.32
2022-09-25T14:19:31.374Z,5.78
2022-09-25T14:22:00.372Z,5.50
2022-09-25T14:24:29.755Z,5.35
2022-09-25T14:27:02.169Z,6.00
2022-09-25T14:29:37.727Z,6.15
2022-09-25T14:32:50.198Z,5.75
2022-09-25T14:35:25.114Z,6.00
2022-09-25T14:37:54.885Z,5.75
2022-09-25T14:40:33.419Z,5.82
2022-09-25T14:43:23.944Z,6.40
2022-09-25T14:46:12.771Z,5.72
2022-09-25T14:49:02.365Z,5.25
2022-09-25T14:51:43.753Z,5.47
2022-09-25T14:54:16.281Z,5.82
2022-09-25T14:56:48.866Z,5.63
2022-09-25T14:59:24.648Z,6.65
2022-09-25T15:01:52.968Z,5.97
2022-09-25T15:04:34.647Z,5.72
2022-09-25T15:07:14.250Z,6.00
2022-09-25T15:09:49.543Z,6.13
2022-09-25T15:12:30.523Z,5.85
2022-09-25T15:15:12.144Z,6.55
2022-09-25T15:17:53.078Z,5.95
2022-09-25T15:20:23.100Z,6.53
2022-09-25T15:22:57.776Z,6.55
2022-09-25T15:25:32.997Z,6.45
2022-09-25T15:28:00.651Z,6.70
2022-09-25T15:30:28.417Z,6.85
2022-09-25T15:33:00.487Z,6.70
2022-09-25T15:35:29.471Z,7.28
2022-09-25T15:38:12.607Z,6.72
2022-09-25T15:40:41.569Z,6.78
2022-09-25T15:43:16.273Z,6.90
2022-09-25T15:46:33.390Z,6.55
2022-09-25T15:49:00.622Z,6.28
2022-09-25T15:51:30.572Z,6.35
2022-09-25T15:54:04.096Z,6.65
2022-09-25T15:56:44.386Z,6.63
2022-09-25T15:59:23.281Z,6.80
2022-09-25T16:02:09.947Z,6.55
2022-09-25T16:04:40.598Z,7.38
2022-09-25T16:07:40.855Z,6.93
2022-09-25T16:10:10.575Z,7.13
2022-09-25T16:12:41.943Z,6.80
2022-09-25T16:15:43.536Z,6.82
2022-09-25T16:18:13.440Z,6.88
2022-09-25T16:20:41.902Z,6.40
2022-09-25T16:23:31.362Z,7.18
2022-09-25T16:25:58.677Z,7.30
2022-09-25T16:28:29.242Z,7.32
2022-09-25T16:31:01.679Z,7.20
2022-09-25T16:33:34.802Z,6.93
2022-09-25T16:36:16.931Z,7.18
2022-09-25T16:39:10.116Z,6.97
2022-09-25T16:41:40.351Z,6.70
2022-09-25T16:44:32.648Z,7.22
2022-09-25T16:46:59.468Z,6.95
2022-09-25T16:49:26.677Z,7.20
2022-09-25T16:51:55.453Z,7.53
2022-09-25T16:54:30.822Z,7.60
2022-09-25T16:56:59.417Z,7.90
2022-09-25T16:59:28.339Z,8.50
2022-09-25T17:02:05.020Z,7.68
2022-09-25T17:04:35.840Z,8.10
2022-09-25T17:07:02.797Z,7.40
2022-09-25T17:09:31.440Z,8.13
2022-09-25T17:12:07.493Z,9.05
2022-09-25T17:14:35.857Z,8.25
2022-09-25T17:17:03.259Z,8.10
2022-09-25T17:19:30.032Z,8.40
2022-09-25T17:21:57.865Z,9.38
2022-09-25T17:24:27.182Z,8.40
2022-09-25T17:26:54.764Z,9.68
2022-09-25T17:29:22.763Z,9.05
2022-09-25T17:31:49.684Z,9.73
2022-09-25T17:34:18.850Z,9.77
2022-09-25T17:36:46.132Z,9.65
2022-09-25T17:39:13.299Z,10.65
2022-09-25T17:41:40.576Z,9.77
2022-09-25T17:44:12.285Z,10.35
2022-09-25T17:46:39.103Z,10.98
2022-09-25T17:49:07.097Z,10.90
2022-09-25T17:51:34.714Z,11.75
2022-09-25T17:54:02.571Z,11.68
2022-09-25T17:56:29.669Z,10.40
2022-09-25T17:58:57.907Z,11.52
2022-09-25T18:01:27.787Z,10.80
2022-09-25T18:03:59.836Z,11.43
2022-09-25T18:06:29.051Z,11.40
2022-09-25T18:08:56.705Z,11.65
2022-09-25T18:11:25.487Z,12.10
2022-09-25T18:14:01.203Z,10.85
2022-09-25T18:16:31.148Z,12.02
2022-09-25T18:19:17.412Z,11.10
2022-09-25T18:22:02.880Z,12.00
2022-09-25T18:24:30.319Z,11.75
2022-09-25T18:26:58.049Z,12.13
2022-09-25T18:29:25.049Z,11.60
2022-09-25T18:31:52.784Z,12.80
2022-09-25T18:34:21.796Z,11.65
2022-09-25T18:36:49.996Z,12.32
2022-09-25T18:39:20.491Z,12.32
2022-09-25T18:41:48.302Z,12.15
2022-09-25T18:44:17.802Z,12.18
2022-09-25T18:46:45.056Z,11.63
2022-09-25T18:49:11.888Z,12.65
2022-09-25T18:51:38.742Z,12.30
2022-09-25T18:54:06.164Z,14.00
2022-09-25T18:56:34.659Z,14.23
2022-09-25T18:59:05.496Z,13.98
2022-09-25T19:01:34.711Z,14.32
2022-09-25T19:04:02.038Z,13.25
2022-09-25T19:06:28.850Z,13.68
2022-09-25T19:08:57.848Z,14.63
2022-09-25T19:11:26.383Z,13.98
2022-09-25T19:13:53.720Z,14.45
2022-09-25T19:16:21.552Z,14.02
2022-09-25T19:18:50.189Z,14.07
2022-09-25T19:21:22.329Z,14.07
2022-09-25T19:23:49.917Z,13.80
2022-09-25T19:26:20.955Z,14.85
2022-09-25T19:28:48.896Z,15.65
2022-09-25T19:31:22.417Z,14.77
2022-09-25T19:33:50.789Z,16.35
2022-09-25T19:36:24.221Z,17.20
2022-09-25T19:38:51.297Z,18.38
2022-09-25T19:41:19.723Z,15.75
2022-09-25T19:43:46.715Z,17.40
2022-09-25T19:46:17.420Z,17.58
2022-09-25T19:48:46.086Z,18.07
2022-09-25T19:51:14.125Z,18.70
2022-09-25T19:53:42.087Z,19.02
2022-09-25T19:56:10.301Z,19.77
2022-09-25T19:58:40.907Z,21.42
2022-09-25T20:01:13.451Z,22.30
2022-09-25T20:03:41.994Z,21.65
2022-09-25T20:06:09.936Z,22.70
2022-09-25T20:08:37.771Z,21.05
2022-09-25T20:11:19.546Z,20.98
2022-09-25T20:13:47.865Z,20.15
2022-09-25T20:16:18.937Z,22.75
2022-09-25T20:18:50.559Z,23.13
2022-09-25T20:23:58.903Z,22.33
2022-09-25T20:26:26.846Z,23.08
2022-09-25T20:29:01.817Z,21.95
2022-09-25T20:31:32.437Z,23.63
2022-09-25T20:33:59.451Z,23.23
2022-09-25T20:36:27.227Z,22.85
2022-09-25T20:38:56.121Z,23.95
2022-09-25T20:41:25.015Z,23.80
2022-09-25T20:43:54.973Z,24.00
2022-09-25T20:46:23.940Z,24.63
2022-09-25T20:48:52.781Z,22.27
2022-09-25T20:51:26.980Z,24.98
2022-09-25T20:53:57.159Z,23.75
2022-09-25T20:56:24.485Z,25.08
2022-09-25T20:58:53.457Z,24.25
2022-09-25T21:01:23.275Z,23.30
2022-09-25T21:03:52.010Z,23.80
2022-09-25T21:06:24.682Z,24.15
2022-09-25T21:08:53.613Z,22.80
2022-09-25T21:11:21.613Z,23.08
2022-09-25T21:13:53.613Z,23.08
2022-09-25T21:16:22.263Z,24.23
2022-09-25T21:19:00.777Z,23.70
2022-09-25T21:21:28.906Z,24.05
2022-09-25T21:23:57.549Z,24.55
2022-09-25T21:26:28.090Z,24.58
2022-09-25T21:28:58.141Z,25.05
2022-09-25T21:31:34.759Z,24.90
2022-09-25T21:34:02.249Z,25.50
2022-09-25T21:36:30.100Z,26.17
2022-09-25T21:38:56.986Z,25.75
2022-09-25T21:41:26.028Z,25.42
2022-09-25T21:44:02.607Z,25.67
2022-09-25T21:46:30.153Z,25.17
2022-09-25T21:48:59.833Z,25.67
2022-09-25T21:51:32.454Z,25.75
2022-09-25T21:54:01.198Z,27.08
2022-09-25T21:56:30.115Z,26.33
2022-09-25T21:58:58.077Z,25.02
2022-09-25T22:01:32.237Z,24.27
2022-09-25T22:03:59.975Z,24.35
2022-09-25T22:06:33.616Z,23.40
2022-09-25T22:09:05.234Z,23.13
2022-09-25T22:11:32.839Z,23.98
2022-09-25T22:14:00.235Z,23.55
2022-09-25T22:16:33.365Z,22.83
2022-09-25T22:19:10.827Z,22.58
2022-09-25T22:21:38.161Z,22.02
2022-09-25T22:24:06.096Z,23.23
2022-09-25T22:26:39.063Z,22.60
2022-09-25T22:29:07.026Z,23.10
2022-09-25T22:31:35.300Z,23.60
2022-09-25T22:34:05.854Z,23.45
2022-09-25T22:36:35.966Z,23.88
2022-09-25T22:39:04.546Z,22.23
2022-09-25T22:41:31.865Z,23.63
2022-09-25T22:44:00.935Z,23.30
2022-09-25T22:46:28.676Z,23.58
2022-09-25T22:48:56.226Z,25.15
2022-09-25T22:51:26.216Z,23.25
2022-09-25T22:53:54.507Z,24.63
2022-09-25T22:56:26.133Z,24.58
2022-09-25T22:58:59.595Z,23.70
2022-09-25T23:01:32.043Z,23.83
2022-09-25T23:04:03.544Z,23.23
2022-09-25T23:06:33.267Z,23.98
2022-09-25T23:09:03.395Z,24.33
2022-09-25T23:11:31.133Z,23.25
2022-09-25T23:14:06.358Z,23.17
2022-09-25T23:16:34.211Z,22.10
2022-09-25T23:19:01.600Z,23.02
2022-09-25T23:21:29.918Z,21.05
2022-09-25T23:24:17.589Z,22.13
2022-09-25T23:26:45.873Z,21.55
2022-09-25T23:29:15.682Z,21.48
2022-09-25T23:31:42.888Z,21.25
2022-09-25T23:34:10.595Z,20.77
2022-09-25T23:36:38.206Z,20.42
2022-09-25T23:39:06.439Z,20.75
2022-09-25T23:41:35.996Z,19.65
2022-09-25T23:44:05.409Z,20.25
2022-09-25T23:46:35.130Z,20.13
2022-09-25T23:49:02.613Z,20.23
2022-09-25T23:51:29.812Z,19.98
2022-09-25T23:53:58.116Z,19.63
2022-09-25T23:56:27.487Z,20.17
2022-09-25T23:58:56.612Z,20.50
